sensor_id;sensor_type;location;lat;lon;timestamp;P1;durP1;ratioP1;P2;durP2;ratioP2
12433;SDS011;6281;49.038;8.372;2022-10-17T00:00:17;5.67;;;4.43;;
12433;SDS011;6281;49.038;8.372;2022-10-17T00:02:45;7.83;;;4.60;;
12433;SDS011;6281;49.038;8.372;2022-10-17T00:05:12;7.47;;;3.97;;
12433;SDS011;6281;49.038;8.372;2022-10-17T00:07:39;7.77;;;4.53;;
12433;SDS011;6281;49.038;8.372;2022-10-17T00:10:06;7.23;;;4.10;;
12433;SDS011;6281;49.038;8.372;2022-10-17T00:12:38;5.90;;;3.90;;
12433;SDS011;6281;49.038;8.372;2022-10-17T00:15:06;5.20;;;3.90;;
12433;SDS011;6281;49.038;8.372;2022-10-17T00:17:33;8.63;;;3.90;;
12433;SDS011;6281;49.038;8.372;2022-10-17T00:20:02;6.23;;;4.20;;
12433;SDS011;6281;49.038;8.372;2022-10-17T00:22:30;4.67;;;3.60;;
12433;SDS011;6281;49.038;8.372;2022-10-17T00:24:56;8.60;;;4.33;;
12433;SDS011;6281;49.038;8.372;2022-10-17T00:27:23;5.80;;;3.83;;
12433;SDS011;6281;49.038;8.372;2022-10-17T00:29:52;8.40;;;3.70;;
12433;SDS011;6281;49.038;8.372;2022-10-17T00:32:19;5.03;;;4.20;;
12433;SDS011;6281;49.038;8.372;2022-10-17T00:34:47;8.53;;;4.43;;
12433;SDS011;6281;49.038;8.372;2022-10-17T00:37:14;8.87;;;3.60;;
12433;SDS011;6281;49.038;8.372;2022-10-17T00:39:41;7.97;;;3.60;;
12433;SDS011;6281;49.038;8.372;2022-10-17T00:42:09;5.27;;;3.80;;
12433;SDS011;6281;49.038;8.372;2022-10-17T00:47:27;10.37;;;4.17;;
12433;SDS011;6281;49.038;8.372;2022-10-17T00:49:55;15.17;;;5.23;;
12433;SDS011;6281;49.038;8.372;2022-10-17T00:52:24;17.10;;;5.43;;
12433;SDS011;6281;49.038;8.372;2022-10-17T00:54:53;9.53;;;3.90;;
12433;SDS011;6281;49.038;8.372;2022-10-17T00:57:23;17.60;;;5.83;;
12433;SDS011;6281;49.038;8.372;2022-10-17T00:59:52;15.87;;;5.07;;
12433;SDS011;6281;49.038;8.372;2022-10-17T01:02:22;10.97;;;4.07;;
12433;SDS011;6281;49.038;8.372;2022-10-17T01:04:50;9.57;;;3.40;;
12433;SDS011;6281;49.038;8.372;2022-10-17T01:07:19;8.43;;;3.17;;
12433;SDS011;6281;49.038;8.372;2022-10-17T01:09:47;8.43;;;3.17;;
12433;SDS011;6281;49.038;8.372;2022-10-17T01:12:16;5.73;;;3.23;;
12433;SDS011;6281;49.038;8.372;2022-10-17T01:14:50;5.60;;;3.07;;
12433;SDS011;6281;49.038;8.372;2022-10-17T01:17:28;6.00;;;2.63;;
12433;SDS011;6281;49.038;8.372;2022-10-17T01:20:13;3.63;;;2.97;;
12433;SDS011;6281;49.038;8.372;2022-10-17T01:23:06;5.30;;;2.60;;
12433;SDS011;6281;49.038;8.372;2022-10-17T01:25:54;2.87;;;2.50;;
12433;SDS011;6281;49.038;8.372;2022-10-17T01:28:44;5.23;;;2.80;;
12433;SDS011;6281;49.038;8.372;2022-10-17T01:31:38;5.27;;;2.50;;
12433;SDS011;6281;49.038;8.372;2022-10-17T01:34:11;5.17;;;2.53;;
12433;SDS011;6281;49.038;8.372;2022-10-17T01:36:45;5.43;;;2.83;;
12433;SDS011;6281;49.038;8.372;2022-10-17T01:39:16;5.80;;;2.70;;
12433;SDS011;6281;49.038;8.372;2022-10-17T01:41:48;5.13;;;3.23;;
12433;SDS011;6281;49.038;8.372;2022-10-17T01:44:22;7.00;;;2.97;;
12433;SDS011;6281;49.038;8.372;2022-10-17T01:46:57;4.10;;;2.93;;
12433;SDS011;6281;49.038;8.372;2022-10-17T01:49:27;4.93;;;2.73;;
12433;SDS011;6281;49.038;8.372;2022-10-17T01:51:57;7.30;;;3.37;;
12433;SDS011;6281;49.038;8.372;2022-10-17T01:54:29;4.77;;;2.80;;
12433;SDS011;6281;49.038;8.372;2022-10-17T01:56:59;4.43;;;2.93;;
12433;SDS011;6281;49.038;8.372;2022-10-17T01:59:33;4.53;;;2.93;;
12433;SDS011;6281;49.038;8.372;2022-10-17T02:02:05;9.20;;;3.10;;
12433;SDS011;6281;49.038;8.372;2022-10-17T02:04:33;5.03;;;2.83;;
12433;SDS011;6281;49.038;8.372;2022-10-17T02:07:04;4.97;;;3.10;;
12433;SDS011;6281;49.038;8.372;2022-10-17T02:09:32;5.50;;;3.20;;
12433;SDS011;6281;49.038;8.372;2022-10-17T02:12:06;11.57;;;3.70;;
12433;SDS011;6281;49.038;8.372;2022-10-17T02:14:47;4.80;;;2.83;;
12433;SDS011;6281;49.038;8.372;2022-10-17T02:17:29;6.50;;;3.10;;
12433;SDS011;6281;49.038;8.372;2022-10-17T02:20:09;4.13;;;2.83;;
12433;SDS011;6281;49.038;8.372;2022-10-17T02:22:46;6.00;;;3.10;;
12433;SDS011;6281;49.038;8.372;2022-10-17T02:25:20;4.63;;;3.00;;
12433;SDS011;6281;49.038;8.372;2022-10-17T02:27:55;10.10;;;3.73;;
12433;SDS011;6281;49.038;8.372;2022-10-17T02:30:35;6.00;;;2.83;;
12433;SDS011;6281;49.038;8.372;2022-10-17T02:33:08;6.17;;;2.83;;
12433;SDS011;6281;49.038;8.372;2022-10-17T02:35:40;5.47;;;2.80;;
12433;SDS011;6281;49.038;8.372;2022-10-17T02:38:12;3.97;;;2.20;;
12433;SDS011;6281;49.038;8.372;2022-10-17T02:40:40;9.60;;;2.77;;
12433;SDS011;6281;49.038;8.372;2022-10-17T02:43:09;6.07;;;2.73;;
12433;SDS011;6281;49.038;8.372;2022-10-17T02:45:36;4.10;;;2.80;;
12433;SDS011;6281;49.038;8.372;2022-10-17T02:48:07;9.83;;;3.30;;
12433;SDS011;6281;49.038;8.372;2022-10-17T02:50:41;6.77;;;2.60;;
12433;SDS011;6281;49.038;8.372;2022-10-17T02:53:19;7.37;;;2.70;;
12433;SDS011;6281;49.038;8.372;2022-10-17T02:55:51;6.90;;;2.60;;
12433;SDS011;6281;49.038;8.372;2022-10-17T02:58:22;7.77;;;2.70;;
12433;SDS011;6281;49.038;8.372;2022-10-17T03:00:53;3.53;;;2.47;;
12433;SDS011;6281;49.038;8.372;2022-10-17T03:03:23;4.47;;;2.47;;
12433;SDS011;6281;49.038;8.372;2022-10-17T03:05:51;4.60;;;2.20;;
12433;SDS011;6281;49.038;8.372;2022-10-17T03:08:19;3.53;;;2.30;;
12433;SDS011;6281;49.038;8.372;2022-10-17T03:10:46;2.90;;;2.30;;
12433;SDS011;6281;49.038;8.372;2022-10-17T03:13:13;6.60;;;2.50;;
12433;SDS011;6281;49.038;8.372;2022-10-17T03:15:40;6.53;;;2.20;;
12433;SDS011;6281;49.038;8.372;2022-10-17T03:18:07;2.93;;;2.00;;
12433;SDS011;6281;49.038;8.372;2022-10-17T03:20:36;3.50;;;1.87;;
12433;SDS011;6281;49.038;8.372;2022-10-17T03:23:03;8.47;;;2.40;;
12433;SDS011;6281;49.038;8.372;2022-10-17T03:25:30;8.33;;;2.17;;
12433;SDS011;6281;49.038;8.372;2022-10-17T03:27:57;7.50;;;2.60;;
12433;SDS011;6281;49.038;8.372;2022-10-17T03:30:25;7.20;;;3.07;;
12433;SDS011;6281;49.038;8.372;2022-10-17T03:32:53;11.83;;;3.70;;
12433;SDS011;6281;49.038;8.372;2022-10-17T03:35:22;6.63;;;2.57;;
12433;SDS011;6281;49.038;8.372;2022-10-17T03:37:50;7.87;;;2.80;;
12433;SDS011;6281;49.038;8.372;2022-10-17T03:40:17;10.50;;;2.83;;
12433;SDS011;6281;49.038;8.372;2022-10-17T03:42:44;6.63;;;2.87;;
12433;SDS011;6281;49.038;8.372;2022-10-17T03:45:11;4.03;;;2.50;;
12433;SDS011;6281;49.038;8.372;2022-10-17T03:47:38;7.73;;;2.67;;
12433;SDS011;6281;49.038;8.372;2022-10-17T03:50:05;5.97;;;2.70;;
12433;SDS011;6281;49.038;8.372;2022-10-17T03:52:33;6.27;;;2.50;;
12433;SDS011;6281;49.038;8.372;2022-10-17T03:55:01;5.63;;;2.87;;
12433;SDS011;6281;49.038;8.372;2022-10-17T03:57:28;6.20;;;2.87;;
12433;SDS011;6281;49.038;8.372;2022-10-17T03:59:55;6.57;;;2.93;;
12433;SDS011;6281;49.038;8.372;2022-10-17T04:02:21;7.97;;;2.73;;
12433;SDS011;6281;49.038;8.372;2022-10-17T04:04:48;7.17;;;2.83;;
12433;SDS011;6281;49.038;8.372;2022-10-17T04:07:15;7.60;;;2.47;;
12433;SDS011;6281;49.038;8.372;2022-10-17T04:09:42;4.77;;;2.93;;
12433;SDS011;6281;49.038;8.372;2022-10-17T04:12:10;6.53;;;2.70;;
12433;SDS011;6281;49.038;8.372;2022-10-17T04:14:37;6.97;;;2.50;;
12433;SDS011;6281;49.038;8.372;2022-10-17T04:17:04;4.73;;;2.80;;
12433;SDS011;6281;49.038;8.372;2022-10-17T04:19:31;5.27;;;2.30;;
12433;SDS011;6281;49.038;8.372;2022-10-17T04:21:58;4.67;;;2.80;;
12433;SDS011;6281;49.038;8.372;2022-10-17T04:24:27;5.83;;;2.43;;
12433;SDS011;6281;49.038;8.372;2022-10-17T04:26:54;5.90;;;2.80;;
12433;SDS011;6281;49.038;8.372;2022-10-17T04:29:22;5.00;;;2.60;;
12433;SDS011;6281;49.038;8.372;2022-10-17T04:31:50;8.43;;;3.13;;
12433;SDS011;6281;49.038;8.372;2022-10-17T04:34:17;3.67;;;2.30;;
12433;SDS011;6281;49.038;8.372;2022-10-17T04:36:44;3.83;;;2.67;;
12433;SDS011;6281;49.038;8.372;2022-10-17T04:39:11;5.40;;;2.57;;
12433;SDS011;6281;49.038;8.372;2022-10-17T04:41:38;4.30;;;2.27;;
12433;SDS011;6281;49.038;8.372;2022-10-17T04:44:05;5.27;;;2.67;;
12433;SDS011;6281;49.038;8.372;2022-10-17T04:46:34;5.60;;;2.20;;
12433;SDS011;6281;49.038;8.372;2022-10-17T04:49:00;5.70;;;2.50;;
12433;SDS011;6281;49.038;8.372;2022-10-17T04:51:27;10.37;;;2.70;;
12433;SDS011;6281;49.038;8.372;2022-10-17T04:53:54;5.57;;;2.93;;
12433;SDS011;6281;49.038;8.372;2022-10-17T04:56:22;7.93;;;2.90;;
12433;SDS011;6281;49.038;8.372;2022-10-17T04:58:49;5.37;;;2.70;;
12433;SDS011;6281;49.038;8.372;2022-10-17T05:01:18;5.93;;;2.77;;
12433;SDS011;6281;49.038;8.372;2022-10-17T05:03:47;6.97;;;2.90;;
12433;SDS011;6281;49.038;8.372;2022-10-17T05:06:15;5.87;;;2.83;;
12433;SDS011;6281;49.038;8.372;2022-10-17T05:08:43;4.40;;;2.40;;
12433;SDS011;6281;49.038;8.372;2022-10-17T05:11:15;5.13;;;2.53;;
12433;SDS011;6281;49.038;8.372;2022-10-17T05:13:43;4.10;;;2.80;;
12433;SDS011;6281;49.038;8.372;2022-10-17T05:16:10;5.57;;;2.70;;
12433;SDS011;6281;49.038;8.372;2022-10-17T05:18:37;6.93;;;2.77;;
12433;SDS011;6281;49.038;8.372;2022-10-17T05:21:05;8.03;;;3.00;;
12433;SDS011;6281;49.038;8.372;2022-10-17T05:23:32;4.93;;;3.07;;
12433;SDS011;6281;49.038;8.372;2022-10-17T05:25:59;3.50;;;2.87;;
12433;SDS011;6281;49.038;8.372;2022-10-17T05:28:26;3.47;;;2.33;;
12433;SDS011;6281;49.038;8.372;2022-10-17T05:30:53;7.17;;;1.87;;
12433;SDS011;6281;49.038;8.372;2022-10-17T05:33:21;5.33;;;2.40;;
12433;SDS011;6281;49.038;8.372;2022-10-17T05:35:48;7.23;;;2.27;;
12433;SDS011;6281;49.038;8.372;2022-10-17T05:38:16;6.63;;;2.20;;
12433;SDS011;6281;49.038;8.372;2022-10-17T05:40:43;7.07;;;2.20;;
12433;SDS011;6281;49.038;8.372;2022-10-17T05:43:10;4.73;;;1.97;;
12433;SDS011;6281;49.038;8.372;2022-10-17T05:45:38;2.57;;;1.83;;
12433;SDS011;6281;49.038;8.372;2022-10-17T05:48:06;2.97;;;2.07;;
12433;SDS011;6281;49.038;8.372;2022-10-17T05:50:33;10.93;;;2.63;;
12433;SDS011;6281;49.038;8.372;2022-10-17T05:53:00;6.57;;;2.40;;
12433;SDS011;6281;49.038;8.372;2022-10-17T05:55:29;5.17;;;2.60;;
12433;SDS011;6281;49.038;8.372;2022-10-17T05:57:56;5.90;;;2.60;;
12433;SDS011;6281;49.038;8.372;2022-10-17T06:00:24;6.17;;;2.70;;
12433;SDS011;6281;49.038;8.372;2022-10-17T06:02:51;9.20;;;2.50;;
12433;SDS011;6281;49.038;8.372;2022-10-17T06:05:18;5.80;;;2.77;;
12433;SDS011;6281;49.038;8.372;2022-10-17T06:07:45;3.97;;;2.60;;
12433;SDS011;6281;49.038;8.372;2022-10-17T06:10:14;3.93;;;2.80;;
12433;SDS011;6281;49.038;8.372;2022-10-17T06:12:44;10.80;;;3.13;;
12433;SDS011;6281;49.038;8.372;2022-10-17T06:15:11;6.60;;;3.47;;
12433;SDS011;6281;49.038;8.372;2022-10-17T06:17:38;6.47;;;3.50;;
12433;SDS011;6281;49.038;8.372;2022-10-17T06:20:05;7.23;;;3.10;;
12433;SDS011;6281;49.038;8.372;2022-10-17T06:22:33;5.20;;;3.00;;
12433;SDS011;6281;49.038;8.372;2022-10-17T06:25:00;7.13;;;3.67;;
12433;SDS011;6281;49.038;8.372;2022-10-17T06:27:27;6.20;;;3.30;;
12433;SDS011;6281;49.038;8.372;2022-10-17T06:29:55;16.73;;;3.67;;
12433;SDS011;6281;49.038;8.372;2022-10-17T06:32:22;7.80;;;3.60;;
12433;SDS011;6281;49.038;8.372;2022-10-17T06:34:49;5.30;;;3.43;;
12433;SDS011;6281;49.038;8.372;2022-10-17T06:37:16;9.47;;;3.30;;
12433;SDS011;6281;49.038;8.372;2022-10-17T06:39:43;6.93;;;4.07;;
12433;SDS011;6281;49.038;8.372;2022-10-17T06:42:10;7.20;;;3.13;;
12433;SDS011;6281;49.038;8.372;2022-10-17T06:44:37;8.30;;;3.57;;
12433;SDS011;6281;49.038;8.372;2022-10-17T06:47:06;11.77;;;5.07;;
12433;SDS011;6281;49.038;8.372;2022-10-17T06:49:34;9.73;;;5.43;;
12433;SDS011;6281;49.038;8.372;2022-10-17T06:52:01;8.20;;;4.77;;
12433;SDS011;6281;49.038;8.372;2022-10-17T06:54:28;8.40;;;4.90;;
12433;SDS011;6281;49.038;8.372;2022-10-17T06:56:55;11.73;;;5.23;;
12433;SDS011;6281;49.038;8.372;2022-10-17T06:59:22;12.20;;;5.37;;
12433;SDS011;6281;49.038;8.372;2022-10-17T07:01:49;10.47;;;5.00;;
12433;SDS011;6281;49.038;8.372;2022-10-17T07:04:17;14.97;;;4.90;;
12433;SDS011;6281;49.038;8.372;2022-10-17T07:06:44;8.00;;;4.70;;
12433;SDS011;6281;49.038;8.372;2022-10-17T07:09:11;9.57;;;5.73;;
12433;SDS011;6281;49.038;8.372;2022-10-17T07:11:38;11.63;;;5.60;;
12433;SDS011;6281;49.038;8.372;2022-10-17T07:14:05;14.43;;;5.23;;
12433;SDS011;6281;49.038;8.372;2022-10-17T07:16:32;9.70;;;5.57;;
12433;SDS011;6281;49.038;8.372;2022-10-17T07:19:00;18.10;;;5.80;;
12433;SDS011;6281;49.038;8.372;2022-10-17T07:21:28;9.33;;;5.23;;
12433;SDS011;6281;49.038;8.372;2022-10-17T07:23:55;10.33;;;5.57;;
12433;SDS011;6281;49.038;8.372;2022-10-17T07:26:22;18.77;;;5.93;;
12433;SDS011;6281;49.038;8.372;2022-10-17T07:28:50;26.10;;;6.40;;
12433;SDS011;6281;49.038;8.372;2022-10-17T07:31:20;10.73;;;5.33;;
12433;SDS011;6281;49.038;8.372;2022-10-17T07:33:48;7.77;;;5.37;;
12433;SDS011;6281;49.038;8.372;2022-10-17T07:36:15;10.57;;;5.27;;
12433;SDS011;6281;49.038;8.372;2022-10-17T07:38:44;13.13;;;5.70;;
12433;SDS011;6281;49.038;8.372;2022-10-17T07:41:11;9.10;;;5.50;;
12433;SDS011;6281;49.038;8.372;2022-10-17T07:43:39;11.97;;;5.77;;
12433;SDS011;6281;49.038;8.372;2022-10-17T07:46:07;14.27;;;5.50;;
12433;SDS011;6281;49.038;8.372;2022-10-17T07:48:35;8.97;;;5.60;;
12433;SDS011;6281;49.038;8.372;2022-10-17T07:51:04;8.70;;;5.10;;
12433;SDS011;6281;49.038;8.372;2022-10-17T07:53:33;11.33;;;4.63;;
12433;SDS011;6281;49.038;8.372;2022-10-17T07:56:04;7.60;;;4.53;;
12433;SDS011;6281;49.038;8.372;2022-10-17T07:58:32;11.43;;;5.17;;
12433;SDS011;6281;49.038;8.372;2022-10-17T08:00:59;9.53;;;5.00;;
12433;SDS011;6281;49.038;8.372;2022-10-17T08:03:26;10.70;;;5.10;;
12433;SDS011;6281;49.038;8.372;2022-10-17T08:05:55;10.20;;;4.60;;
12433;SDS011;6281;49.038;8.372;2022-10-17T08:08:23;11.83;;;4.23;;
12433;SDS011;6281;49.038;8.372;2022-10-17T08:10:50;8.20;;;3.97;;
12433;SDS011;6281;49.038;8.372;2022-10-17T08:13:18;7.47;;;3.80;;
12433;SDS011;6281;49.038;8.372;2022-10-17T08:15:45;8.37;;;3.80;;
12433;SDS011;6281;49.038;8.372;2022-10-17T08:18:12;9.63;;;4.17;;
12433;SDS011;6281;49.038;8.372;2022-10-17T08:20:40;7.87;;;3.53;;
12433;SDS011;6281;49.038;8.372;2022-10-17T08:23:07;8.10;;;3.80;;
12433;SDS011;6281;49.038;8.372;2022-10-17T08:25:34;6.20;;;3.90;;
12433;SDS011;6281;49.038;8.372;2022-10-17T08:28:03;7.47;;;3.50;;
12433;SDS011;6281;49.038;8.372;2022-10-17T08:30:32;12.23;;;3.90;;
12433;SDS011;6281;49.038;8.372;2022-10-17T08:32:59;3.80;;;3.27;;
12433;SDS011;6281;49.038;8.372;2022-10-17T08:35:26;4.40;;;3.20;;
12433;SDS011;6281;49.038;8.372;2022-10-17T08:37:53;7.67;;;3.30;;
12433;SDS011;6281;49.038;8.372;2022-10-17T08:40:21;6.07;;;2.80;;
12433;SDS011;6281;49.038;8.372;2022-10-17T08:42:55;9.83;;;3.40;;
12433;SDS011;6281;49.038;8.372;2022-10-17T08:45:34;5.57;;;3.73;;
12433;SDS011;6281;49.038;8.372;2022-10-17T08:48:08;4.63;;;2.83;;
12433;SDS011;6281;49.038;8.372;2022-10-17T08:50:42;5.40;;;3.07;;
12433;SDS011;6281;49.038;8.372;2022-10-17T08:53:14;9.73;;;3.33;;
12433;SDS011;6281;49.038;8.372;2022-10-17T08:55:44;7.70;;;3.13;;
12433;SDS011;6281;49.038;8.372;2022-10-17T08:58:12;4.23;;;3.07;;
12433;SDS011;6281;49.038;8.372;2022-10-17T09:00:42;5.50;;;2.90;;
12433;SDS011;6281;49.038;8.372;2022-10-17T09:03:19;6.20;;;2.70;;
12433;SDS011;6281;49.038;8.372;2022-10-17T09:05:58;4.40;;;3.10;;
12433;SDS011;6281;49.038;8.372;2022-10-17T09:08:36;11.20;;;3.30;;
12433;SDS011;6281;49.038;8.372;2022-10-17T09:11:10;8.90;;;3.20;;
12433;SDS011;6281;49.038;8.372;2022-10-17T09:13:49;6.10;;;3.07;;
12433;SDS011;6281;49.038;8.372;2022-10-17T09:16:37;10.43;;;3.00;;
12433;SDS011;6281;49.038;8.372;2022-10-17T09:19:15;4.30;;;3.20;;
12433;SDS011;6281;49.038;8.372;2022-10-17T09:21:46;6.87;;;3.10;;
12433;SDS011;6281;49.038;8.372;2022-10-17T09:24:19;6.53;;;2.90;;
12433;SDS011;6281;49.038;8.372;2022-10-17T09:26:52;7.97;;;3.53;;
12433;SDS011;6281;49.038;8.372;2022-10-17T09:29:21;6.07;;;2.70;;
12433;SDS011;6281;49.038;8.372;2022-10-17T09:31:56;6.80;;;3.30;;
12433;SDS011;6281;49.038;8.372;2022-10-17T09:34:27;8.70;;;3.37;;
12433;SDS011;6281;49.038;8.372;2022-10-17T09:36:56;7.80;;;3.00;;
12433;SDS011;6281;49.038;8.372;2022-10-17T09:39:25;5.80;;;2.90;;
12433;SDS011;6281;49.038;8.372;2022-10-17T09:41:57;4.53;;;2.97;;
12433;SDS011;6281;49.038;8.372;2022-10-17T09:44:28;11.20;;;3.33;;
12433;SDS011;6281;49.038;8.372;2022-10-17T09:47:01;6.80;;;3.33;;
12433;SDS011;6281;49.038;8.372;2022-10-17T09:49:38;5.17;;;2.80;;
12433;SDS011;6281;49.038;8.372;2022-10-17T09:52:09;8.87;;;3.00;;
12433;SDS011;6281;49.038;8.372;2022-10-17T09:54:41;5.50;;;3.37;;
12433;SDS011;6281;49.038;8.372;2022-10-17T09:57:10;8.33;;;3.27;;
12433;SDS011;6281;49.038;8.372;2022-10-17T09:59:39;5.53;;;2.77;;
12433;SDS011;6281;49.038;8.372;2022-10-17T10:02:11;7.30;;;2.87;;
12433;SDS011;6281;49.038;8.372;2022-10-17T10:04:52;6.43;;;2.73;;
12433;SDS011;6281;49.038;8.372;2022-10-17T10:07:24;5.37;;;3.03;;
12433;SDS011;6281;49.038;8.372;2022-10-17T10:09:52;7.80;;;2.87;;
12433;SDS011;6281;49.038;8.372;2022-10-17T10:12:21;8.57;;;3.13;;
12433;SDS011;6281;49.038;8.372;2022-10-17T10:14:49;5.37;;;2.90;;
12433;SDS011;6281;49.038;8.372;2022-10-17T10:17:34;3.93;;;2.60;;
12433;SDS011;6281;49.038;8.372;2022-10-17T10:20:24;3.60;;;2.60;;
12433;SDS011;6281;49.038;8.372;2022-10-17T10:23:08;7.30;;;2.93;;
12433;SDS011;6281;49.038;8.372;2022-10-17T10:25:41;8.87;;;3.37;;
12433;SDS011;6281;49.038;8.372;2022-10-17T10:28:17;7.07;;;2.80;;
12433;SDS011;6281;49.038;8.372;2022-10-17T10:30:46;6.43;;;2.70;;
12433;SDS011;6281;49.038;8.372;2022-10-17T10:33:16;6.60;;;2.80;;
12433;SDS011;6281;49.038;8.372;2022-10-17T10:35:50;5.40;;;2.37;;
12433;SDS011;6281;49.038;8.372;2022-10-17T10:38:20;9.63;;;2.83;;
12433;SDS011;6281;49.038;8.372;2022-10-17T10:40:48;3.63;;;2.80;;
12433;SDS011;6281;49.038;8.372;2022-10-17T10:43:21;3.93;;;2.40;;
12433;SDS011;6281;49.038;8.372;2022-10-17T10:45:52;7.27;;;2.73;;
12433;SDS011;6281;49.038;8.372;2022-10-17T10:48:21;3.13;;;2.50;;
12433;SDS011;6281;49.038;8.372;2022-10-17T10:50:50;6.97;;;2.63;;
12433;SDS011;6281;49.038;8.372;2022-10-17T10:53:24;6.67;;;2.77;;
12433;SDS011;6281;49.038;8.372;2022-10-17T10:55:58;6.23;;;2.80;;
12433;SDS011;6281;49.038;8.372;2022-10-17T11:01:17;7.37;;;2.20;;
12433;SDS011;6281;49.038;8.372;2022-10-17T11:03:53;3.17;;;2.50;;
12433;SDS011;6281;49.038;8.372;2022-10-17T11:06:33;4.20;;;2.70;;
12433;SDS011;6281;49.038;8.372;2022-10-17T11:09:10;6.10;;;2.60;;
12433;SDS011;6281;49.038;8.372;2022-10-17T11:11:43;2.43;;;2.23;;
12433;SDS011;6281;49.038;8.372;2022-10-17T11:14:14;2.90;;;2.37;;
12433;SDS011;6281;49.038;8.372;2022-10-17T11:16:45;3.03;;;2.10;;
12433;SDS011;6281;49.038;8.372;2022-10-17T11:19:22;4.33;;;2.23;;
12433;SDS011;6281;49.038;8.372;2022-10-17T11:21:57;7.97;;;2.83;;
12433;SDS011;6281;49.038;8.372;2022-10-17T11:24:32;12.53;;;2.73;;
12433;SDS011;6281;49.038;8.372;2022-10-17T11:27:06;6.30;;;2.50;;
12433;SDS011;6281;49.038;8.372;2022-10-17T11:29:34;6.17;;;2.80;;
12433;SDS011;6281;49.038;8.372;2022-10-17T11:32:05;7.53;;;2.25;;
12433;SDS011;6281;49.038;8.372;2022-10-17T11:34:38;6.77;;;2.43;;
12433;SDS011;6281;49.038;8.372;2022-10-17T11:37:11;2.40;;;2.00;;
12433;SDS011;6281;49.038;8.372;2022-10-17T11:39:43;3.30;;;1.88;;
12433;SDS011;6281;49.038;8.372;2022-10-17T11:42:14;6.85;;;2.40;;
12433;SDS011;6281;49.038;8.372;2022-10-17T11:44:46;4.88;;;2.10;;
12433;SDS011;6281;49.038;8.372;2022-10-17T11:47:20;4.55;;;2.10;;
12433;SDS011;6281;49.038;8.372;2022-10-17T11:49:56;2.35;;;2.15;;
12433;SDS011;6281;49.038;8.372;2022-10-17T11:52:29;2.50;;;2.10;;
12433;SDS011;6281;49.038;8.372;2022-10-17T11:55:03;4.05;;;2.22;;
12433;SDS011;6281;49.038;8.372;2022-10-17T11:57:41;3.83;;;2.10;;
12433;SDS011;6281;49.038;8.372;2022-10-17T12:00:21;4.03;;;2.23;;
12433;SDS011;6281;49.038;8.372;2022-10-17T12:02:56;9.75;;;2.55;;
12433;SDS011;6281;49.038;8.372;2022-10-17T12:05:36;6.85;;;2.45;;
12433;SDS011;6281;49.038;8.372;2022-10-17T12:08:10;5.75;;;2.22;;
12433;SDS011;6281;49.038;8.372;2022-10-17T12:10:44;4.78;;;2.38;;
12433;SDS011;6281;49.038;8.372;2022-10-17T12:19:28;5.70;;;2.43;;
12433;SDS011;6281;49.038;8.372;2022-10-17T12:22:01;6.70;;;2.28;;
12433;SDS011;6281;49.038;8.372;2022-10-17T12:24:34;11.25;;;3.60;;
12433;SDS011;6281;49.038;8.372;2022-10-17T12:32:59;9.18;;;2.72;;
12433;SDS011;6281;49.038;8.372;2022-10-17T12:35:30;8.02;;;2.85;;
12433;SDS011;6281;49.038;8.372;2022-10-17T12:38:01;7.78;;;2.67;;
12433;SDS011;6281;49.038;8.372;2022-10-17T12:40:47;4.85;;;2.42;;
12433;SDS011;6281;49.038;8.372;2022-10-17T12:46:09;4.18;;;2.17;;
12433;SDS011;6281;49.038;8.372;2022-10-17T12:51:26;5.35;;;2.38;;
12433;SDS011;6281;49.038;8.372;2022-10-17T12:53:56;3.30;;;2.15;;
12433;SDS011;6281;49.038;8.372;2022-10-17T12:56:33;5.13;;;2.53;;
12433;SDS011;6281;49.038;8.372;2022-10-17T12:59:05;3.80;;;2.03;;
12433;SDS011;6281;49.038;8.372;2022-10-17T13:01:35;5.57;;;2.25;;
12433;SDS011;6281;49.038;8.372;2022-10-17T13:04:04;7.10;;;2.28;;
12433;SDS011;6281;49.038;8.372;2022-10-17T13:06:35;7.82;;;2.50;;
12433;SDS011;6281;49.038;8.372;2022-10-17T13:09:16;6.43;;;2.20;;
12433;SDS011;6281;49.038;8.372;2022-10-17T13:11:49;3.85;;;2.40;;
12433;SDS011;6281;49.038;8.372;2022-10-17T13:14:17;5.72;;;2.35;;
12433;SDS011;6281;49.038;8.372;2022-10-17T13:16:49;5.85;;;2.40;;
12433;SDS011;6281;49.038;8.372;2022-10-17T13:19:18;5.60;;;2.13;;
12433;SDS011;6281;49.038;8.372;2022-10-17T13:21:50;5.22;;;2.28;;
12433;SDS011;6281;49.038;8.372;2022-10-17T13:24:22;6.60;;;2.60;;
12433;SDS011;6281;49.038;8.372;2022-10-17T13:26:53;5.93;;;3.03;;
12433;SDS011;6281;49.038;8.372;2022-10-17T13:29:20;11.13;;;3.20;;
12433;SDS011;6281;49.038;8.372;2022-10-17T13:31:50;4.43;;;2.35;;
12433;SDS011;6281;49.038;8.372;2022-10-17T13:34:19;7.85;;;2.63;;
12433;SDS011;6281;49.038;8.372;2022-10-17T13:36:47;8.82;;;2.65;;
12433;SDS011;6281;49.038;8.372;2022-10-17T13:39:18;5.72;;;2.60;;
12433;SDS011;6281;49.038;8.372;2022-10-17T13:41:48;16.52;;;4.07;;
12433;SDS011;6281;49.038;8.372;2022-10-17T13:44:17;4.13;;;2.83;;
12433;SDS011;6281;49.038;8.372;2022-10-17T13:46:45;6.38;;;2.90;;
12433;SDS011;6281;49.038;8.372;2022-10-17T13:49:17;19.85;;;3.70;;
12433;SDS011;6281;49.038;8.372;2022-10-17T13:51:47;6.28;;;2.10;;
12433;SDS011;6281;49.038;8.372;2022-10-17T13:54:17;5.15;;;2.53;;
12433;SDS011;6281;49.038;8.372;2022-10-17T13:56:56;6.75;;;2.33;;
12433;SDS011;6281;49.038;8.372;2022-10-17T13:59:25;4.70;;;2.55;;
12433;SDS011;6281;49.038;8.372;2022-10-17T14:01:55;3.08;;;2.25;;
12433;SDS011;6281;49.038;8.372;2022-10-17T14:04:22;5.13;;;2.33;;
12433;SDS011;6281;49.038;8.372;2022-10-17T14:06:49;12.68;;;2.83;;
12433;SDS011;6281;49.038;8.372;2022-10-17T14:09:17;5.07;;;2.38;;
12433;SDS011;6281;49.038;8.372;2022-10-17T14:11:56;6.57;;;2.15;;
12433;SDS011;6281;49.038;8.372;2022-10-17T14:14:26;7.55;;;2.50;;
12433;SDS011;6281;49.038;8.372;2022-10-17T14:16:54;6.97;;;2.60;;
12433;SDS011;6281;49.038;8.372;2022-10-17T14:19:23;3.20;;;2.40;;
12433;SDS011;6281;49.038;8.372;2022-10-17T14:21:52;4.72;;;3.08;;
12433;SDS011;6281;49.038;8.372;2022-10-17T14:24:25;5.78;;;2.63;;
12433;SDS011;6281;49.038;8.372;2022-10-17T14:26:54;4.53;;;2.67;;
12433;SDS011;6281;49.038;8.372;2022-10-17T14:29:27;10.38;;;3.08;;
12433;SDS011;6281;49.038;8.372;2022-10-17T14:31:59;7.05;;;3.40;;
12433;SDS011;6281;49.038;8.372;2022-10-17T14:34:30;5.80;;;2.40;;
12433;SDS011;6281;49.038;8.372;2022-10-17T14:36:59;5.35;;;2.28;;
12433;SDS011;6281;49.038;8.372;2022-10-17T14:39:27;4.50;;;2.30;;
12433;SDS011;6281;49.038;8.372;2022-10-17T14:41:54;3.60;;;2.13;;
12433;SDS011;6281;49.038;8.372;2022-10-17T14:44:24;2.85;;;2.35;;
12433;SDS011;6281;49.038;8.372;2022-10-17T14:50:19;8.75;;;3.03;;
12433;SDS011;6281;49.038;8.372;2022-10-17T14:52:57;5.68;;;3.10;;
12433;SDS011;6281;49.038;8.372;2022-10-17T14:55:26;4.40;;;2.63;;
12433;SDS011;6281;49.038;8.372;2022-10-17T14:57:55;5.15;;;3.08;;
12433;SDS011;6281;49.038;8.372;2022-10-17T15:00:24;6.85;;;3.55;;
12433;SDS011;6281;49.038;8.372;2022-10-17T15:02:52;3.50;;;2.45;;
12433;SDS011;6281;49.038;8.372;2022-10-17T15:05:20;6.22;;;2.50;;
12433;SDS011;6281;49.038;8.372;2022-10-17T15:07:49;4.38;;;3.15;;
12433;SDS011;6281;49.038;8.372;2022-10-17T15:10:21;4.63;;;3.05;;
12433;SDS011;6281;49.038;8.372;2022-10-17T15:12:58;6.93;;;2.90;;
12433;SDS011;6281;49.038;8.372;2022-10-17T15:15:27;14.27;;;3.67;;
12433;SDS011;6281;49.038;8.372;2022-10-17T15:17:55;3.88;;;2.70;;
12433;SDS011;6281;49.038;8.372;2022-10-17T15:20:30;4.03;;;2.47;;
12433;SDS011;6281;49.038;8.372;2022-10-17T15:23:01;5.07;;;3.15;;
12433;SDS011;6281;49.038;8.372;2022-10-17T15:25:29;10.98;;;2.95;;
12433;SDS011;6281;49.038;8.372;2022-10-17T15:28:00;3.30;;;2.58;;
12433;SDS011;6281;49.038;8.372;2022-10-17T15:30:29;4.65;;;2.70;;
12433;SDS011;6281;49.038;8.372;2022-10-17T15:32:57;5.82;;;2.70;;
12433;SDS011;6281;49.038;8.372;2022-10-17T15:35:25;4.75;;;3.05;;
12433;SDS011;6281;49.038;8.372;2022-10-17T15:37:52;9.25;;;3.63;;
12433;SDS011;6281;49.038;8.372;2022-10-17T15:40:20;10.00;;;3.95;;
12433;SDS011;6281;49.038;8.372;2022-10-17T15:42:50;5.30;;;3.03;;
12433;SDS011;6281;49.038;8.372;2022-10-17T15:45:32;5.43;;;3.13;;